ADDS TAF Board (Experimental) INFO Settings
IDs: Format: Expanded Condensed

KMIA - Miami Intl, FL, US

Issued at 2330 UTC 05 Feb 2016
Updated at: 0013 UTC 06 Feb 2016
Time2353Z 06/01Z 06/02Z 06/03Z 06/04Z 06/05Z 06/06Z 06/07Z 06/08Z 06/09Z 06/10Z 06/11Z 06/12Z 06/13Z
Type OBS PRVL PRVL PRVL PRVL PRVL PRVL PRVL PRVL PRVL PRVL PRVL PRVL PRVL
VIS 10 >6 >6 >6 >6 >6 >6 >6 >6 >6 >6 >6 >6 >6
CIG 30 35 35 35 35 35 35 35 35 35 35 35 35 35
Cover OVC OVC OVC OVC OVC OVC OVC OVC OVC OVC OVC OVC OVC OVC
FltCat MVFR VFR VFR VFR VFR VFR VFR VFR VFR VFR VFR VFR VFR VFR
WX -- -- -- -- -- -- -- -- -- -- -- -- -- VCSH
WDir 350 30 30 30 30 30 30 30 50 50 50 50 50 50
WSpd 5 7 7 7 7 7 7 7 8 8 8 8 8 8
WGst -- -- -- -- -- -- -- -- -- -- -- -- -- --
R08/26
XWnd 5 6 6 6 6 6 6 6 5 5 5 5 5 5
HWnd -1 4 4 4 4 4 4 4 6 6 6 6 6 6
R09/27
XWnd 5 6 6 6 6 6 6 6 5 5 5 5 5 5
HWnd -1 4 4 4 4 4 4 4 6 6 6 6 6 6
R12/30
XWnd 4 7 7 7 7 7 7 7 7 7 7 7 7 7
HWnd -3 0 0 0 0 0 0 0 3 3 3 3 3 3

NOTE: TEMPO conditions in [brackets]. Keep in mind TEMPO conditions might be better (lower impact) than prevailing conditions.

Raw TAF
KMIA 052330Z 0600/0624 03007KT P6SM OVC035
  FM060800 05008KT P6SM SCT020 OVC035
  FM061300 05008KT P6SM VCSH SCT025 OVC035
  PROB30 0618/0624 3SM RA BKN025


Raw METAR
KMIA 052353Z 35005KT 10SM BKN030 OVC038 19/12 A3015 RMK AO2 SLP209 T01890117 10189 20178 51008
KMIA 052253Z VRB05KT 10SM FEW032 BKN037 OVC047 19/11 A3014 RMK AO2 SLP207 T01890111
KMIA 052153Z 02007KT 10SM BKN033 OVC042 19/11 A3014 RMK AO2 SLP205 T01890106

METAR Board
Radar Display
Forecast Discussion

TAF Board Legend

Potential Impact
Threat None Slight Moderate High
Visibility (sm) ≥5.1 5.1>X≥3 3>X≥1 <1
Ceiling (100 ft) ≥30.1 30.1>X≥10 10>X≥5 <5
Wind Speed (kt) <10 10≤X<20 20≤X<30 ≥30
Wind Gust (kt) <15 15≤X<25 25≤X<35 ≥35
Weather No Wx Reported VCTS,-TS,-FZRA,SN TS,FZRA +TS,+FZRA,+SN